Time;durP1;ratioP1;P1;durP2;ratioP2;P2;SDS_P1;SDS_P2;PMS_P1;PMS_P2;Temp;Humidity;BMP_temperature;BMP_pressure;BME280_temperature;BME280_humidity;BME280_pressure;Samples;Min_cycle;Max_cycle;Signal;HPM_P1;HPM_P2
2022/04/05 14:04:43;;;;;;;206.10;32.67;;;;;;;;;;5035930;28;20598;-52
2022/04/05 14:07:11;;;;;;;55.93;10.97;;;;;;;;;;5036095;28;20631;-52
2022/04/05 14:09:37;;;;;;;105.37;18.77;;;;;;;;;;5031461;28;20175;-52
2022/04/05 14:12:03;;;;;;;162.53;28.67;;;;;;;;;;5022865;28;20186;-52
2022/04/05 14:14:29;;;;;;;94.67;17.17;;;;;;;;;;5022405;28;20561;-52
2022/04/05 14:16:55;;;;;;;77.23;14.67;;;;;;;;;;5025391;28;20203;-53
2022/04/05 14:19:22;;;;;;;88.27;15.87;;;;;;;;;;5017880;28;20256;-52
2022/04/05 14:21:48;;;;;;;164.77;29.43;;;;;;;;;;5005618;28;21466;-53
2022/04/05 14:24:14;;;;;;;96.10;17.93;;;;;;;;;;5023168;28;20266;-52
2022/04/05 14:26:40;;;;;;;120.33;21.67;;;;;;;;;;5017607;28;20199;-52
2022/04/05 14:29:06;;;;;;;113.00;20.40;;;;;;;;;;5015785;28;20721;-52
2022/04/05 14:31:32;;;;;;;74.90;13.70;;;;;;;;;;5018753;28;20203;-52
2022/04/05 14:33:58;;;;;;;131.43;22.27;;;;;;;;;;5023572;28;20243;-52
2022/04/05 14:36:24;;;;;;;133.80;22.37;;;;;;;;;;5007661;28;20283;-52
2022/04/05 14:38:50;;;;;;;99.07;16.63;;;;;;;;;;5023197;28;20219;-52
2022/04/05 14:41:19;;;;;;;151.97;25.67;;;;;;;;;;5013230;28;20192;-52
2022/04/05 14:43:46;;;;;;;115.50;20.13;;;;;;;;;;5019140;28;20192;-52
2022/04/05 14:46:11;;;;;;;120.83;21.73;;;;;;;;;;5014424;28;20211;-52
2022/04/05 14:48:37;;;;;;;138.70;24.57;;;;;;;;;;5010053;28;20633;-52
2022/04/05 14:51:03;;;;;;;39.10;7.57;;;;;;;;;;5012177;28;21204;-52
2022/04/05 14:53:29;;;;;;;89.27;16.47;;;;;;;;;;5013190;28;20222;-52
2022/04/05 14:55:56;;;;;;;100.43;17.73;;;;;;;;;;5012516;28;20479;-52
2022/04/05 14:58:22;;;;;;;87.37;15.50;;;;;;;;;;5018027;28;20183;-52
2022/04/05 15:00:48;;;;;;;127.63;23.07;;;;;;;;;;5019830;28;20192;-52
2022/04/05 15:03:14;;;;;;;90.97;16.27;;;;;;;;;;5014841;28;20239;-52
2022/04/05 15:05:40;;;;;;;156.90;26.77;;;;;;;;;;5010794;28;20637;-52
2022/04/05 15:08:07;;;;;;;76.83;14.17;;;;;;;;;;5019031;28;20188;-52
2022/04/05 15:10:33;;;;;;;154.50;27.20;;;;;;;;;;5015913;28;20184;-53
2022/04/05 15:12:59;;;;;;;85.00;15.53;;;;;;;;;;5017431;28;20265;-52
2022/04/05 15:15:25;;;;;;;79.30;14.60;;;;;;;;;;5014969;28;20201;-52
2022/04/05 15:17:51;;;;;;;74.87;13.17;;;;;;;;;;5009437;28;20292;-52
2022/04/05 15:20:17;;;;;;;87.87;15.67;;;;;;;;;;5006995;28;20176;-52
2022/04/05 15:22:43;;;;;;;114.30;20.50;;;;;;;;;;5005660;28;20215;-52
2022/04/05 15:25:13;;;;;;;120.23;21.47;;;;;;;;;;5008564;28;20208;-52
2022/04/05 15:27:39;;;;;;;91.23;16.00;;;;;;;;;;5007094;28;20188;-52
2022/04/05 15:30:05;;;;;;;75.93;13.40;;;;;;;;;;5012461;28;20678;-52
2022/04/05 15:32:31;;;;;;;51.17;9.40;;;;;;;;;;5018475;28;20201;-52
2022/04/05 15:34:57;;;;;;;104.30;18.23;;;;;;;;;;5006269;28;20177;-52
2022/04/05 15:37:23;;;;;;;61.10;10.90;;;;;;;;;;5012850;28;20176;-52
2022/04/05 15:39:49;;;;;;;63.03;11.30;;;;;;;;;;5013668;28;20191;-52
2022/04/05 15:42:15;;;;;;;114.47;20.27;;;;;;;;;;5011196;28;20176;-52
2022/04/05 15:44:41;;;;;;;48.00;9.00;;;;;;;;;;5007561;28;24615;-52
2022/04/05 15:47:08;;;;;;;83.80;15.00;;;;;;;;;;5027327;28;20736;-53
2022/04/05 15:49:34;;;;;;;114.23;19.93;;;;;;;;;;5004193;28;20215;-52
2022/04/05 15:52:00;;;;;;;67.40;12.20;;;;;;;;;;5011377;28;20196;-52
2022/04/05 15:54:26;;;;;;;95.93;16.90;;;;;;;;;;5016222;28;20323;-54
2022/04/05 15:56:52;;;;;;;69.83;12.67;;;;;;;;;;5015628;28;20306;-52
2022/04/05 15:59:19;;;;;;;143.87;25.23;;;;;;;;;;4999932;28;20271;-53
2022/04/05 16:01:45;;;;;;;70.50;13.00;;;;;;;;;;5011642;28;20184;-53
2022/04/05 16:04:11;;;;;;;92.50;17.20;;;;;;;;;;5016043;28;20205;-53
2022/04/05 16:06:37;;;;;;;66.20;12.37;;;;;;;;;;5012735;28;20217;-53
2022/04/05 16:09:03;;;;;;;83.13;14.87;;;;;;;;;;5010711;28;20187;-53
2022/04/05 16:11:29;;;;;;;85.83;15.20;;;;;;;;;;5009089;28;20561;-53
2022/04/05 16:13:56;;;;;;;166.30;28.50;;;;;;;;;;5012688;28;20208;-52
2022/04/05 16:16:22;;;;;;;61.40;11.50;;;;;;;;;;5003738;28;20205;-53
2022/04/05 16:18:48;;;;;;;68.67;12.43;;;;;;;;;;5012110;28;20176;-53
2022/04/05 16:21:14;;;;;;;75.30;13.27;;;;;;;;;;5011214;28;20573;-53
2022/04/05 16:23:40;;;;;;;59.60;10.70;;;;;;;;;;5021648;28;20188;-53
2022/04/05 16:26:07;;;;;;;258.93;43.83;;;;;;;;;;5008485;28;20238;-54
2022/04/05 16:28:33;;;;;;;123.47;21.43;;;;;;;;;;5000637;28;20188;-52
2022/04/05 16:31:00;;;;;;;73.10;12.87;;;;;;;;;;5003075;28;20215;-52
2022/04/05 16:33:26;;;;;;;104.53;18.23;;;;;;;;;;5007288;28;20637;-51
2022/04/05 16:35:52;;;;;;;53.53;10.00;;;;;;;;;;4998459;28;20201;-52
2022/04/05 16:38:18;;;;;;;64.87;11.77;;;;;;;;;;5014647;28;20242;-51
2022/04/05 16:40:44;;;;;;;123.93;20.80;;;;;;;;;;5014418;28;20192;-51
2022/04/05 16:43:10;;;;;;;52.60;9.63;;;;;;;;;;4999008;28;20667;-51
2022/04/05 16:45:36;;;;;;;89.70;15.33;;;;;;;;;;5012677;28;20212;-52
2022/04/05 16:48:02;;;;;;;106.57;18.07;;;;;;;;;;5010275;28;20191;-51
2022/04/05 16:50:28;;;;;;;57.23;10.27;;;;;;;;;;5007954;28;20192;-51
2022/04/05 16:52:54;;;;;;;65.90;11.77;;;;;;;;;;5008726;28;20313;-51
2022/04/05 16:55:20;;;;;;;71.67;12.83;;;;;;;;;;5005153;28;20287;-52
2022/04/05 16:57:46;;;;;;;71.37;12.47;;;;;;;;;;5007897;28;20401;-51
2022/04/05 17:00:13;;;;;;;49.80;9.07;;;;;;;;;;5016959;28;20188;-51
2022/04/05 17:02:39;;;;;;;108.17;18.63;;;;;;;;;;5010322;28;23052;-52
2022/04/05 17:05:05;;;;;;;164.73;27.50;;;;;;;;;;5004577;28;20601;-51
2022/04/05 17:07:31;;;;;;;47.07;8.57;;;;;;;;;;5013822;28;20570;-52
2022/04/05 17:09:58;;;;;;;51.73;9.07;;;;;;;;;;5013907;28;20298;-52
2022/04/05 17:12:24;;;;;;;87.97;15.00;;;;;;;;;;5008571;28;20184;-52
2022/04/05 17:14:52;;;;;;;132.73;22.20;;;;;;;;;;5004613;28;20194;-52
2022/04/05 17:17:18;;;;;;;83.90;14.53;;;;;;;;;;5010475;28;20200;-52
2022/04/05 17:19:46;;;;;;;130.90;21.63;;;;;;;;;;5002631;28;20176;-52
2022/04/05 17:22:13;;;;;;;85.83;15.07;;;;;;;;;;5004156;28;20274;-51
2022/04/05 17:24:41;;;;;;;91.90;15.37;;;;;;;;;;5008707;28;20199;-51
2022/04/05 17:27:07;;;;;;;79.60;13.87;;;;;;;;;;5007679;28;20195;-52
2022/04/05 17:29:33;;;;;;;135.13;23.30;;;;;;;;;;5000453;28;20271;-52
2022/04/05 17:32:00;;;;;;;116.50;19.23;;;;;;;;;;5000858;28;20188;-51
2022/04/05 17:34:26;;;;;;;210.03;35.23;;;;;;;;;;4999961;28;20405;-52
2022/04/05 17:36:52;;;;;;;69.73;12.60;;;;;;;;;;4999683;28;20216;-53
2022/04/05 17:39:18;;;;;;;79.77;13.83;;;;;;;;;;5007300;28;20645;-52
2022/04/05 17:41:44;;;;;;;102.97;16.87;;;;;;;;;;5006072;28;20192;-52
2022/04/05 17:44:10;;;;;;;69.50;11.90;;;;;;;;;;5009732;28;20800;-52
2022/04/05 17:46:37;;;;;;;67.43;11.73;;;;;;;;;;5004616;28;20281;-52
2022/04/05 17:49:03;;;;;;;145.53;24.03;;;;;;;;;;4998760;28;20196;-52
2022/04/05 17:51:30;;;;;;;82.77;14.43;;;;;;;;;;5003613;28;20203;-52
2022/04/05 17:53:55;;;;;;;116.33;19.43;;;;;;;;;;5004765;28;20303;-52
2022/04/05 17:56:21;;;;;;;110.20;18.87;;;;;;;;;;5005493;28;20208;-52
2022/04/05 17:58:47;;;;;;;110.53;18.70;;;;;;;;;;5000910;28;21548;-52
2022/04/05 18:01:14;;;;;;;124.10;21.03;;;;;;;;;;5009111;28;22098;-52
2022/04/05 18:03:42;;;;;;;97.83;16.40;;;;;;;;;;5002398;28;20311;-52
2022/04/05 18:06:07;;;;;;;100.27;17.23;;;;;;;;;;5006100;28;20505;-52
2022/04/05 18:08:34;;;;;;;84.13;14.23;;;;;;;;;;5018552;28;20831;-52
2022/04/05 18:11:03;;;;;;;95.97;16.50;;;;;;;;;;5015132;28;20263;-52
2022/04/05 18:13:30;;;;;;;90.47;15.53;;;;;;;;;;5007216;28;20216;-53
2022/04/05 18:15:56;;;;;;;58.23;10.50;;;;;;;;;;5008019;28;20213;-52
2022/04/05 18:18:22;;;;;;;57.87;10.37;;;;;;;;;;5021230;28;20185;-52
2022/04/05 18:20:49;;;;;;;88.00;14.93;;;;;;;;;;5010471;28;20581;-52
2022/04/05 18:23:16;;;;;;;77.53;13.67;;;;;;;;;;5019148;28;20645;-52
2022/04/05 18:25:42;;;;;;;58.23;10.37;;;;;;;;;;5022057;28;20278;-52
2022/04/05 18:28:08;;;;;;;58.50;10.67;;;;;;;;;;5018492;28;22431;-51
2022/04/05 18:30:35;;;;;;;95.70;17.20;;;;;;;;;;5010318;28;20243;-50
2022/04/05 18:33:01;;;;;;;106.13;17.87;;;;;;;;;;5005205;28;20203;-50
2022/04/05 18:35:27;;;;;;;62.97;10.93;;;;;;;;;;5006173;28;20291;-51
2022/04/05 18:37:54;;;;;;;91.60;15.17;;;;;;;;;;5004184;28;20247;-50
2022/04/05 18:40:20;;;;;;;92.63;15.10;;;;;;;;;;5003731;28;20234;-50
2022/04/05 18:42:46;;;;;;;96.80;15.57;;;;;;;;;;5006344;28;20204;-51
2022/04/05 18:45:16;;;;;;;69.40;11.87;;;;;;;;;;4999044;28;20212;-51
2022/04/05 18:47:43;;;;;;;116.87;19.13;;;;;;;;;;4997130;28;20271;-51
2022/04/05 18:50:09;;;;;;;138.13;22.70;;;;;;;;;;4997363;28;20219;-50
2022/04/05 18:52:37;;;;;;;71.83;11.97;;;;;;;;;;5014140;28;20187;-50
2022/04/05 18:55:04;;;;;;;213.30;34.47;;;;;;;;;;5019401;28;20267;-51
2022/04/05 18:57:30;;;;;;;86.97;14.33;;;;;;;;;;5011696;28;20181;-50
2022/04/05 18:59:56;;;;;;;107.97;17.80;;;;;;;;;;4999305;28;20915;-50
2022/04/05 19:02:22;;;;;;;79.07;13.50;;;;;;;;;;5009853;28;20177;-51
2022/04/05 19:04:48;;;;;;;211.90;33.63;;;;;;;;;;4995886;28;20180;-50
2022/04/05 19:07:14;;;;;;;148.43;24.07;;;;;;;;;;5008342;28;20253;-51
2022/04/05 19:09:40;;;;;;;74.70;12.43;;;;;;;;;;5013224;28;20189;-50
2022/04/05 19:12:06;;;;;;;140.90;23.33;;;;;;;;;;5011263;28;20204;-50
2022/04/05 19:14:33;;;;;;;89.07;14.37;;;;;;;;;;5006994;28;20569;-50
2022/04/05 19:16:59;;;;;;;109.23;17.83;;;;;;;;;;5005057;28;20208;-51
2022/04/05 19:19:25;;;;;;;94.10;15.53;;;;;;;;;;5002417;28;20285;-50
2022/04/05 19:21:51;;;;;;;134.87;21.97;;;;;;;;;;5003056;28;21155;-50
2022/04/05 19:24:17;;;;;;;139.33;22.40;;;;;;;;;;5001186;28;20196;-50
2022/04/05 19:26:43;;;;;;;101.40;16.20;;;;;;;;;;5005642;28;20263;-50
2022/04/05 19:29:09;;;;;;;191.33;31.03;;;;;;;;;;5003689;28;20603;-51
2022/04/05 19:31:36;;;;;;;132.07;20.40;;;;;;;;;;5002677;28;20540;-50
2022/04/05 19:34:02;;;;;;;161.67;24.87;;;;;;;;;;5002716;28;20212;-50
2022/04/05 19:36:28;;;;;;;67.00;11.27;;;;;;;;;;5014531;28;20251;-50
2022/04/05 19:38:55;;;;;;;90.40;15.07;;;;;;;;;;5010208;28;22082;-50
2022/04/05 19:41:21;;;;;;;119.83;19.17;;;;;;;;;;5007858;28;20267;-50
2022/04/05 19:43:48;;;;;;;153.97;24.97;;;;;;;;;;4999031;28;20193;-50
2022/04/05 19:46:14;;;;;;;219.57;36.60;;;;;;;;;;5005417;28;20262;-50
2022/04/05 19:48:40;;;;;;;108.33;17.70;;;;;;;;;;5000373;28;20185;-50
2022/04/05 19:51:09;;;;;;;57.43;10.00;;;;;;;;;;4999657;28;20201;-50
2022/04/05 19:53:35;;;;;;;128.60;20.40;;;;;;;;;;5014193;28;20743;-50
2022/04/05 19:56:01;;;;;;;126.30;20.40;;;;;;;;;;5004883;28;20274;-50
2022/04/05 19:58:27;;;;;;;88.00;14.73;;;;;;;;;;5004684;28;20185;-50
2022/04/05 20:00:54;;;;;;;130.57;21.00;;;;;;;;;;4996519;28;20184;-50
2022/04/05 20:03:20;;;;;;;74.60;12.63;;;;;;;;;;5009290;28;20852;-50
2022/04/05 20:05:47;;;;;;;74.87;12.63;;;;;;;;;;5006060;28;20208;-50
2022/04/05 20:08:13;;;;;;;83.97;13.63;;;;;;;;;;5016382;28;20530;-50
2022/04/05 20:10:39;;;;;;;62.03;10.40;;;;;;;;;;5012869;28;20554;-51
2022/04/05 20:13:05;;;;;;;85.93;14.40;;;;;;;;;;5012745;28;20204;-50
2022/04/05 20:15:34;;;;;;;111.27;17.87;;;;;;;;;;4992106;28;20770;-50
2022/04/05 20:20:45;;;;;;;105.33;16.70;;;;;;;;;;4999574;28;20246;-50
2022/04/05 20:23:11;;;;;;;103.57;16.63;;;;;;;;;;5003847;28;20200;-50
2022/04/05 20:25:37;;;;;;;96.50;15.90;;;;;;;;;;5009032;28;20219;-50
2022/04/05 20:28:03;;;;;;;57.07;10.13;;;;;;;;;;5015823;28;20181;-50
2022/04/05 20:30:29;;;;;;;57.07;9.97;;;;;;;;;;5020858;28;20202;-50
2022/04/05 20:32:55;;;;;;;40.67;7.23;;;;;;;;;;5019601;28;20600;-50
2022/04/05 20:35:21;;;;;;;58.53;10.20;;;;;;;;;;5019625;28;20259;-50
2022/04/05 20:37:47;;;;;;;80.87;13.53;;;;;;;;;;5024435;28;20472;-50
2022/04/05 20:40:13;;;;;;;48.67;8.40;;;;;;;;;;5026887;28;20211;-50
2022/04/05 20:42:39;;;;;;;74.83;12.47;;;;;;;;;;5018254;28;20215;-49
2022/04/05 20:45:06;;;;;;;47.07;7.97;;;;;;;;;;5012909;28;20185;-50
2022/04/05 20:47:32;;;;;;;51.57;8.63;;;;;;;;;;5020996;28;20184;-50
2022/04/05 20:49:58;;;;;;;56.07;9.80;;;;;;;;;;5018275;28;20199;-49
2022/04/05 20:52:24;;;;;;;74.97;12.67;;;;;;;;;;5017094;28;20173;-50
2022/04/05 20:54:50;;;;;;;58.60;10.07;;;;;;;;;;5018006;28;20212;-50
2022/04/05 20:57:20;;;;;;;47.20;8.17;;;;;;;;;;5013999;28;20208;-49
2022/04/05 20:59:49;;;;;;;58.57;10.03;;;;;;;;;;5025226;28;20659;-50
2022/04/05 21:02:15;;;;;;;56.10;9.67;;;;;;;;;;5021922;28;20203;-50
2022/04/05 21:04:41;;;;;;;47.73;8.47;;;;;;;;;;5023707;28;20231;-50
2022/04/05 21:07:07;;;;;;;74.17;12.53;;;;;;;;;;5017794;28;20211;-50
2022/04/05 21:09:33;;;;;;;41.37;7.50;;;;;;;;;;5022938;28;20196;-50
2022/04/05 21:11:59;;;;;;;73.50;12.40;;;;;;;;;;5022337;28;20184;-50
2022/04/05 21:14:25;;;;;;;54.80;9.57;;;;;;;;;;5022599;28;20266;-50
2022/04/05 21:16:51;;;;;;;73.70;12.17;;;;;;;;;;5019475;28;20200;-50
2022/04/05 21:19:16;;;;;;;66.00;11.13;;;;;;;;;;5021701;28;20205;-50
2022/04/05 21:21:43;;;;;;;63.67;10.77;;;;;;;;;;5016182;28;20193;-51
2022/04/05 21:24:10;;;;;;;71.60;12.07;;;;;;;;;;5010681;28;20234;-50
2022/04/05 21:26:36;;;;;;;58.27;10.10;;;;;;;;;;5012762;28;20250;-50
2022/04/05 21:31:48;;;;;;;52.70;9.03;;;;;;;;;;5018655;28;20218;-50
2022/04/05 21:34:14;;;;;;;88.17;14.20;;;;;;;;;;5024075;28;20212;-51
2022/04/05 21:36:42;;;;;;;60.53;10.57;;;;;;;;;;5019768;28;20204;-50
2022/04/05 21:39:09;;;;;;;54.13;9.53;;;;;;;;;;5024288;28;20268;-51
2022/04/05 21:41:35;;;;;;;63.23;10.83;;;;;;;;;;5023457;28;20311;-51
2022/04/05 21:44:01;;;;;;;34.77;6.43;;;;;;;;;;5026048;28;20216;-51
2022/04/05 21:46:27;;;;;;;51.47;9.13;;;;;;;;;;5015592;28;20637;-51
2022/04/05 21:48:53;;;;;;;48.93;8.60;;;;;;;;;;5025754;28;20181;-51
2022/04/05 21:51:19;;;;;;;101.53;17.33;;;;;;;;;;5022911;28;20304;-51
2022/04/05 21:53:45;;;;;;;60.73;10.30;;;;;;;;;;5022992;28;20265;-51
2022/04/05 21:56:12;;;;;;;40.87;7.37;;;;;;;;;;5025866;28;20210;-51
2022/04/05 21:58:38;;;;;;;48.63;8.73;;;;;;;;;;5021034;28;20189;-50
2022/04/05 22:01:03;;;;;;;58.73;10.10;;;;;;;;;;5016017;28;20840;-51
2022/04/05 22:03:29;;;;;;;83.33;14.20;;;;;;;;;;5006719;28;20319;-51
2022/04/05 22:05:56;;;;;;;92.50;15.73;;;;;;;;;;5005887;28;20212;-50
2022/04/05 22:08:22;;;;;;;104.37;17.63;;;;;;;;;;5003825;28;20585;-52
2022/04/05 22:10:48;;;;;;;67.93;11.47;;;;;;;;;;5007633;28;20684;-51
2022/04/05 22:13:15;;;;;;;103.53;17.27;;;;;;;;;;5010341;28;20684;-51
2022/04/05 22:15:41;;;;;;;117.30;19.20;;;;;;;;;;5003918;28;20593;-51
2022/04/05 22:18:08;;;;;;;79.20;13.47;;;;;;;;;;5005745;28;20935;-51
2022/04/05 22:20:37;;;;;;;113.03;18.67;;;;;;;;;;5000621;28;20823;-51
2022/04/05 22:23:03;;;;;;;64.53;11.07;;;;;;;;;;5006255;28;20184;-51
2022/04/05 22:25:29;;;;;;;88.13;14.87;;;;;;;;;;5011214;28;20242;-51
2022/04/05 22:27:55;;;;;;;98.57;16.57;;;;;;;;;;5009036;28;20641;-51
2022/04/05 22:30:20;;;;;;;102.60;16.90;;;;;;;;;;5011681;28;20190;-51
2022/04/05 22:32:46;;;;;;;55.93;9.53;;;;;;;;;;5017070;28;20192;-51
2022/04/05 22:35:12;;;;;;;87.60;14.80;;;;;;;;;;5015105;28;20277;-51
2022/04/05 22:37:38;;;;;;;64.93;11.20;;;;;;;;;;5012900;28;20268;-51
2022/04/05 22:40:11;;;;;;;67.20;11.73;;;;;;;;;;5010648;28;20696;-51
2022/04/05 22:42:37;;;;;;;57.23;9.87;;;;;;;;;;5016211;28;20268;-51
2022/04/05 22:45:04;;;;;;;115.73;19.03;;;;;;;;;;5016060;28;20240;-51
2022/04/05 22:47:30;;;;;;;76.20;12.93;;;;;;;;;;5021028;28;20263;-51
2022/04/05 22:49:56;;;;;;;141.57;23.00;;;;;;;;;;5016539;28;20224;-51
2022/04/05 22:52:22;;;;;;;63.47;11.03;;;;;;;;;;5020842;28;20605;-51
2022/04/05 22:54:48;;;;;;;37.30;6.97;;;;;;;;;;5021019;28;20519;-51
2022/04/05 22:57:14;;;;;;;102.17;17.20;;;;;;;;;;5018960;28;20180;-51
2022/04/05 22:59:41;;;;;;;104.47;17.33;;;;;;;;;;5015890;28;20218;-51
2022/04/05 23:02:08;;;;;;;88.20;14.67;;;;;;;;;;5014641;28;20629;-51
2022/04/05 23:04:34;;;;;;;95.57;15.93;;;;;;;;;;5019079;28;20215;-51
2022/04/05 23:07:01;;;;;;;33.40;6.23;;;;;;;;;;5021571;28;20768;-51
2022/04/05 23:09:27;;;;;;;79.37;13.53;;;;;;;;;;5018425;28;20260;-51
2022/04/05 23:11:54;;;;;;;74.10;12.77;;;;;;;;;;5015473;28;20192;-51
2022/04/05 23:14:20;;;;;;;105.37;17.77;;;;;;;;;;5017719;28;20685;-51
2022/04/05 23:16:46;;;;;;;86.97;14.80;;;;;;;;;;5019270;28;20207;-51
2022/04/05 23:19:12;;;;;;;116.77;19.03;;;;;;;;;;5007260;28;20181;-51
2022/04/05 23:21:38;;;;;;;71.33;12.00;;;;;;;;;;5005540;28;20199;-51
2022/04/05 23:24:04;;;;;;;72.70;12.30;;;;;;;;;;5010123;28;20572;-51
2022/04/05 23:26:31;;;;;;;63.97;10.93;;;;;;;;;;5010955;28;20252;-51
2022/04/05 23:29:00;;;;;;;137.57;22.40;;;;;;;;;;5012634;28;20193;-51
2022/04/05 23:31:26;;;;;;;136.17;22.27;;;;;;;;;;5005010;28;20744;-51
2022/04/05 23:33:53;;;;;;;72.83;12.33;;;;;;;;;;5004919;28;20413;-51
2022/04/05 23:36:19;;;;;;;94.70;16.37;;;;;;;;;;5006380;28;20745;-51
2022/04/05 23:38:45;;;;;;;96.47;16.00;;;;;;;;;;5013977;28;20208;-51
2022/04/05 23:41:11;;;;;;;107.83;17.97;;;;;;;;;;5009304;28;20279;-51
2022/04/05 23:43:38;;;;;;;82.87;14.13;;;;;;;;;;5012487;28;20192;-51
2022/04/05 23:46:04;;;;;;;135.80;22.63;;;;;;;;;;5010749;28;20346;-51
2022/04/05 23:48:30;;;;;;;115.83;19.30;;;;;;;;;;5005587;28;22077;-51
2022/04/05 23:50:56;;;;;;;69.93;12.03;;;;;;;;;;5005964;28;20193;-51
2022/04/05 23:53:26;;;;;;;114.17;19.13;;;;;;;;;;5015301;28;20212;-51
2022/04/05 23:55:52;;;;;;;72.57;12.70;;;;;;;;;;5008045;28;20231;-51
2022/04/05 23:58:18;;;;;;;67.63;11.87;;;;;;;;;;5013608;28;20203;-51
